Puerto Vallarta, Mexico

9:01 PM CDT on September 20, 2014 (GMT -0500)
Lic Gustavo Diaz Ordaz International | Change Station
CLOSE
Current Station
Airport
Location: Puerto Vallarta,
Elevation: 20 ft
Nearby Weather Stations

Elev 20 ft 20.68 °N, 105.25 °W | Updated 19 minutes ago

Partly Cloudy
Partly Cloudy
79 °F
Feels Like 79 °F
N
4
Wind Variable Wind from NE

Today
High -- | Low -- °F
--% Chance of Precip.
Yesterday
High -- | Low -- °F
Precip. -- in
7:49 AM 7:59 PM
Waning Crescent, 9% visible
Pressure 29.83 in
Visibility 12.0 miles
Clouds Few 25000 ft
Dew Point 70 °F
Humidity 74%
Rainfall 0.00 in
Snow Depth Not available.
UV 0 out of 12
Pollen Not available.
Air Quality Not available.
Flu Activity Not available.
METAR MMPR 210142Z 04003KT 12SM FEW250 26/21 A2983 RMK 8/001

More Conditions Fewer Conditions

Pressure 29.83 in
Visibility 12.0 miles
Clouds Few 25000 ft
Dew Point 70 °F
Humidity 74%
Rainfall 0.00 in
Snow Depth Not available.
UV 0 out of 12
Pollen Not available.
Air Quality Not available.
Flu Activity Not available.
METAR MMPR 210142Z 04003KT 12SM FEW250 26/21 A2983 RMK 8/001

More Conditions Fewer Conditions

10-Day Weather Forecast

Almanac

Astronomy

Sep. 20, 2014 Rise Set
Actual Time 7:49 AM CDT 7:59 PM CDT
Civil Twilight 7:27 AM CDT 8:21 PM CDT
Nautical Twilight 7:01 AM CDT 8:46 PM CDT
Astronomical Twilight 6:35 AM CDT 9:12 PM CDT
Moon 4:51 AM CDT (9/20) 5:46 PM CDT (9/20)
Length of Visible Light 12h 53m
Length of Day
12h 09m
Tomorrow will be 1m 11s shorter.
Waning Crescent, 9% of the Moon is Illuminated
Today
Waning Crescent
Sep 24
New
Oct 1
First Quarter
Oct 8
Full
Oct 15
Last Quarter

Today's Extremes

Country Highs Country Lows

Community

WunderPhotos

Upload Photos

1,755,032 photos uploaded!

WunderBlogs® & News

Nearby

Snow Depth

Not available.

Earthquake Activity

City Distance Mag. Time & Date
No recent earthquake activity has been reported nearby.
Minimum magnitude displayed is 2.5.

Coastal Water Temperatures

Place Temperature
No Stations Reporting

Nearby Weather Stations